KPVW/PVW METAR and TAF weather

Enter ICAO airport designator
Station Type Date Time Source
KPVW METAR 2022/11/30 17:50 UTC NOAA

KPVW 301750Z AUTO 14006KT 10SM CLR 00/M09 A3039 RMK AO2 T00001087 10000 21071


Station Type Date Time Source
KPVW Decoded METAR 2022/11/30 17:50 UTC NOAA

Plainview, Hale County Airport, TX, United States (KPVW) 34-10-05N 101-43-02W
Nov 30, 2022 - 12:50 PM EST / 2022.11.30 1750 UTC
Wind: from the SE (140 degrees) at 7 MPH (6 KT):0
Visibility: 10 mile(s):0
Sky conditions: clear
Temperature: 32.0 F (0.0 C)
Windchill: 24 F (-4 C):1
Dew Point: 16.3 F (-8.7 C)
Relative Humidity: 51%
Pressure (altimeter): 30.39 in. Hg (1029 hPa)
ob: KPVW 301750Z AUTO 14006KT 10SM CLR 00/M09 A3039 RMK AO2 T00001087 10000 21071
cycle: 18

Station Type Date Time Source
KPVW TAF 2022/11/30 18:30 UTC NOAA

TAF KPVW 301727Z 3018/0118 02008KT P6SM FEW250
FM011700 21011KT P6SM BKN250

Example: see airport list